Wetterdaten der Wetterstation 36433 Bad Salzungen

Letzte Wetterlage 25.01.2015 14:45
Wetterdiagramm
Tabellarische Darstellung
Datum Temperatur Windchill Feuchte Luftdruck Windrichtung Windstärke Niederschlag
25.01.2015 14:45 2,1 °C 2,1 °C 97 % 1025,6 hPa 279 0.0 0,60 mm
25.01.2015 14:30 2,3 °C 2,3 °C 97 % 1025,6 hPa 210 0.0 0,60 mm
25.01.2015 14:10 2,2 °C 2,2 °C 96 % 1025,8 hPa 225 0.0 1,50 mm
25.01.2015 14:00 2,0 °C 2,0 °C 96 % 1025,8 hPa 295 0.0 0,90 mm
25.01.2015 13:45 2,2 °C 2,2 °C 95 % 1025,9 hPa 283 0.0 0,60 mm
25.01.2015 13:30 2,5 °C 2,5 °C 95 % 1025,9 hPa 278 0.0 0,90 mm
25.01.2015 13:10 2,6 °C 2,6 °C 94 % 1026,0 hPa 270 0.0 0,60 mm
25.01.2015 13:00 2,6 °C 2,6 °C 94 % 1026,1 hPa 305 0.0 0,60 mm
25.01.2015 12:45 2,6 °C 2,6 °C 91 % 1026,3 hPa 303 0.0 0,60 mm
25.01.2015 12:30 3,0 °C 3,0 °C 91 % 1026,4 hPa 310 0.0 0,00 mm
25.01.2015 12:10 2,8 °C 2,8 °C 92 % 1026,3 hPa 180 0.0 0,00 mm
25.01.2015 12:00 2,7 °C 2,7 °C 92 % 1026,3 hPa 285 0.0 0,00 mm
25.01.2015 11:45 2,3 °C 2,3 °C 92 % 1026,5 hPa 289 0.0 0,00 mm
25.01.2015 11:30 2,4 °C 2,4 °C 92 % 1026,7 hPa 276 0.0 0,00 mm
25.01.2015 11:10 2,5 °C 2,5 °C 92 % 1026,8 hPa 315 1.4 0,00 mm
25.01.2015 11:00 2,4 °C 2,4 °C 92 % 1026,7 hPa 277 0.0 0,00 mm
25.01.2015 10:45 2,6 °C 2,6 °C 93 % 1026,9 hPa 273 0.0 0,00 mm
25.01.2015 10:30 2,1 °C 2,1 °C 93 % 1026,8 hPa 297 0.5 0,00 mm
25.01.2015 10:10 1,9 °C 1,9 °C 94 % 1026,8 hPa 270 0.0 0,00 mm
25.01.2015 10:00 1,9 °C 1,9 °C 94 % 1026,6 hPa 286 0.0 0,00 mm
25.01.2015 09:45 1,6 °C 1,6 °C 95 % 1026,6 hPa 299 0.0 0,00 mm
25.01.2015 09:30 1,5 °C 1,5 °C 96 % 1026,5 hPa 286 0.0 0,00 mm
25.01.2015 09:10 1,2 °C 1,2 °C 97 % 1026,4 hPa 270 0.0 0,00 mm
25.01.2015 09:00 1,1 °C 1,1 °C 97 % 1026,3 hPa 281 0.5 0,00 mm
25.01.2015 08:45 1,2 °C 1,2 °C 97 % 1026,2 hPa 285 0.0 0,00 mm
Neue Wetterwarnung

Neue Niederschlagsmeldung
Neue Meldung
Regen Liveticker
    sehr starker Regen/Gewitter
    starker Regen/Gewitter
    mäßiger bis starker Regen
    mäßiger Regen
    leichter bis mäßiger Regen
    kein Regen
    Empfehlen Sie wetter.com